Aviation Digital Data Service (ADDS)

Output produced by METARs form (0556 UTC 08 December 2016)
found at http://aviationweather.gov/adds/metars/
 
KRIC 080537Z 0806/0906 00000KT P6SM BKN120 
     FM081200 VRB03KT P6SM OVC020 
     FM081600 31008KT P6SM BKN050 
     FM081900 31007KT P6SM BKN250